Port Sheldon, MI

11:12 AM EDT on August 29, 2015 (GMT -0400)
US31 & Croswell st | | Change Station
CLOSE
Current Station
Personal Weather Station
Location: West Olive, MI
Elevation: 642 ft
Nearby Weather Stations

Elev 642 ft 42.92 °N, 86.14 °W | Updated 1 second ago

Rain
Rain
62.7 °F
Feels Like 62.7 °F
N
1.0
Wind Variable Wind from South
Gusts 2.0 mph

Today
High -- | Low -- °F
--% Chance of Precip.
Yesterday
High -- | Low -- °F
Precip. -- in
7:05 AM 8:24 PM
Full, 100% visible
Pressure 30.10 in
Visibility 6.0 miles
Clouds Overcast 6000 ft
Dew Point 62 °F
Humidity 98%
Rainfall 0.26 in
Snow Depth Not available.
UV 2 out of 12
Pollen 7.50 out of 12
Air Quality Not available.
Flu Activity Not available.
METAR KBIV 291453Z AUTO 14005KT 6SM -RA BR OVC060 18/17 A3010 RMK AO2 SLP192 P0002 60009 T01780167 50000
Pressure 30.10 in
Visibility 6.0 miles
Clouds Overcast 6000 ft
Dew Point 62 °F
Humidity 98%
Rainfall 0.26 in
Snow Depth Not available.
UV 2 out of 12
Pollen 7.50 out of 12
Air Quality Not available.
Flu Activity Not available.
METAR KBIV 291453Z AUTO 14005KT 6SM -RA BR OVC060 18/17 A3010 RMK AO2 SLP192 P0002 60009 T01780167 50000

10-Day Weather Forecast

×

Almanac

Astronomy

Aug. 29, 2015 Rise Set
Actual Time
Civil Twilight
Nautical Twilight
Astronomical Twilight
Moon
Length of Visible Light
Length of Day
Tomorrow will be .
, % of the Moon is Illuminated

Today's Extremes

State Highs State Lows

Community

WunderPhotos

Upload Photos

1,850,694 photos uploaded!

WunderBlogs® & News

Nearby

Air Quality

  Air Quality AQ Index Pollutant
Not available.

Snow Depth

Station Depth Elevation

Earthquake Activity

City Distance Mag. Time & Date
Minimum magnitude displayed is 2.5.

Coastal Water Temperatures

Place Temperature

Stations

Nearby Weather Stations

Station Location Temp. Windchill Dew Point Humidity Wind Precip. Elev Updated Type